< Typhoon 196224 1962 Season Typhoon 196226 >
Typhoon 196225 (HARRIET)
General InformationTrack Information on Google Maps || Disaster Info.ResourceGoogle EarthGE AnimationAtom FeedGeoJSON
Detalied Best Track (Time Zone = UTC)
Year Month Day Hour Lat. Long. Pressure (hPa) Wind (kt) Class Image Chart
1962 10 19 06 11.0 119.0 1003 0 2 -- Chart
1962 10 19 12 11.7 118.2 1006 0 2 -- Chart
1962 10 19 18 10.4 118.0 1006 0 2 -- Chart
1962 10 20 00 9.0 118.0 1006 0 2 -- Chart
1962 10 20 06 8.9 117.4 1006 0 2 -- Chart
1962 10 20 12 8.9 116.6 1006 0 2 -- Chart
1962 10 20 18 8.8 115.7 1006 0 2 -- Chart
1962 10 21 00 8.7 114.9 1006 0 2 -- Chart
1962 10 21 06 8.9 114.0 1006 0 2 -- Chart
1962 10 21 12 9.0 113.0 1006 0 2 -- Chart
1962 10 21 18 8.0 112.0 1006 0 2 -- Chart
1962 10 22 00 8.0 111.0 1004 0 2 -- Chart
1962 10 22 06 8.0 109.9 1004 0 2 -- Chart
1962 10 22 12 8.0 109.0 1004 0 2 -- Chart
1962 10 22 18 7.6 108.3 1004 0 2 -- Chart
1962 10 23 00 7.5 107.5 1004 0 2 -- Chart
1962 10 23 06 7.8 107.5 1004 0 2 -- Chart
1962 10 23 12 8.1 107.4 1004 0 2 -- Chart
1962 10 23 18 8.1 107.0 1004 0 2 -- Chart
1962 10 24 00 8.0 106.6 1002 0 2 -- Chart
1962 10 24 06 7.5 106.0 1002 0 2 -- Chart
1962 10 24 12 7.2 105.0 1002 0 2 -- Chart
1962 10 24 18 7.2 104.0 1002 0 2 -- Chart
1962 10 25 00 7.5 103.0 1002 0 2 -- Chart
1962 10 25 06 7.8 102.5 1002 0 2 -- Chart
1962 10 25 12 8.0 102.0 1000 0 9 -- Chart
1962 10 25 18 8.5 101.5 1000 0 9 -- Chart
1962 10 26 00 8.8 100.8 1000 0 9 -- Chart
1962 10 26 06 8.8 100.0 1004 0 9 -- Chart
1962 10 26 12 8.7 98.7 1004 0 9 -- Chart
1962 10 26 18 10.0 96.9 1006 0 2 -- Chart
1962 10 27 00 10.9 95.0 1004 0 2 -- Chart
Japan Meteorological Agency Best Track Data | Correction Date : 1990-10-17
< Typhoon 196224 1962 Season Typhoon 196226 >

Help